Time;durP1;ratioP1;P1;durP2;ratioP2;P2;SDS_P1;SDS_P2;PMS_P1;PMS_P2;Temp;Humidity;BMP_temperature;BMP_pressure;BME280_temperature;BME280_humidity;BME280_pressure;Samples;Min_cycle;Max_cycle;Signal;HPM_P1;HPM_P2
2023/07/15 00:02:57;;;;;;;;;;;19.00;99.90;;;;;;21001364;28;20020;-78
2023/07/15 00:12:58;;;;;;;;;;;19.10;99.90;;;;;;21006390;28;20282;-78
2023/07/15 00:22:59;;;;;;;;;;;19.00;99.90;;;;;;21052860;28;20313;-80
2023/07/15 00:32:59;;;;;;;;;;;19.10;99.90;;;;;;21030744;28;20433;-81
2023/07/15 00:43:19;;;;;;;;;;;19.00;99.90;;;;;;20986156;28;19959;-79
2023/07/15 00:53:21;;;;;;;;;;;18.60;99.90;;;;;;21012581;28;19913;-79
2023/07/15 01:03:22;;;;;;;;;;;18.20;99.90;;;;;;21017997;28;19979;-78
2023/07/15 01:13:23;;;;;;;;;;;18.30;99.90;;;;;;21018443;28;20386;-78
2023/07/15 01:23:24;;;;;;;;;;;18.40;99.90;;;;;;21018506;28;19917;-78
2023/07/15 01:33:25;;;;;;;;;;;18.10;99.90;;;;;;21020019;22;19950;-75
2023/07/15 01:43:25;;;;;;;;;;;18.20;99.90;;;;;;21002011;28;19916;-75
2023/07/15 01:53:26;;;;;;;;;;;18.30;99.90;;;;;;21001835;28;19912;-75
2023/07/15 02:03:27;;;;;;;;;;;18.30;99.90;;;;;;20957871;28;19923;-75
2023/07/15 02:13:28;;;;;;;;;;;18.30;99.90;;;;;;20918656;28;20259;-75
2023/07/15 02:23:29;;;;;;;;;;;18.20;99.90;;;;;;20899079;28;19917;-76
2023/07/15 02:33:30;;;;;;;;;;;18.10;99.90;;;;;;20915967;28;19924;-75
2023/07/15 02:43:31;;;;;;;;;;;18.10;99.90;;;;;;20860235;28;19917;-75
2023/07/15 02:53:32;;;;;;;;;;;18.10;99.90;;;;;;20831821;28;19916;-75
2023/07/15 03:03:33;;;;;;;;;;;18.20;99.90;;;;;;20872850;28;20453;-74
2023/07/15 03:13:34;;;;;;;;;;;18.30;99.90;;;;;;20894906;28;19913;-75
2023/07/15 03:23:34;;;;;;;;;;;18.20;99.90;;;;;;20894464;28;19924;-75
2023/07/15 03:33:35;;;;;;;;;;;18.20;99.90;;;;;;20911211;28;19917;-75
2023/07/15 03:43:35;;;;;;;;;;;18.10;99.90;;;;;;20909490;28;19916;-75
2023/07/15 03:53:36;;;;;;;;;;;18.00;99.90;;;;;;20908645;28;19920;-76
2023/07/15 04:03:37;;;;;;;;;;;18.00;99.90;;;;;;20909018;28;19969;-75
2023/07/15 04:13:37;;;;;;;;;;;18.00;99.90;;;;;;20908145;28;19917;-74
2023/07/15 04:23:38;;;;;;;;;;;17.90;99.90;;;;;;20887095;28;19916;-75
2023/07/15 04:33:38;;;;;;;;;;;17.80;99.90;;;;;;20907141;28;20003;-75
2023/07/15 04:43:39;;;;;;;;;;;17.70;99.90;;;;;;20906771;28;19917;-75
2023/07/15 04:53:43;;;;;;;;;;;17.90;99.90;;;;;;20906542;28;19920;-75
2023/07/15 05:03:43;;;;;;;;;;;18.10;99.90;;;;;;20906201;28;19971;-75
2023/07/15 05:13:44;;;;;;;;;;;18.30;99.90;;;;;;20905499;28;19912;-75
2023/07/15 05:23:45;;;;;;;;;;;18.70;99.90;;;;;;20905484;28;19916;-76
2023/07/15 05:33:46;;;;;;;;;;;18.90;99.90;;;;;;20904547;28;19917;-74
2023/07/15 05:43:47;;;;;;;;;;;18.90;99.90;;;;;;20914756;28;19917;-75
2023/07/15 05:53:48;;;;;;;;;;;19.40;99.90;;;;;;20917906;28;20001;-75
2023/07/15 06:03:48;;;;;;;;;;;19.80;99.90;;;;;;20916416;28;19917;-76
2023/07/15 06:13:49;;;;;;;;;;;19.90;99.90;;;;;;20915486;28;19913;-75
2023/07/15 06:23:50;;;;;;;;;;;20.50;99.90;;;;;;20911786;28;19916;-76
2023/07/15 06:33:50;;;;;;;;;;;21.20;99.90;;;;;;20849487;28;1816811;-74
2023/07/15 06:43:51;;;;;;;;;;;21.10;99.90;;;;;;20897706;28;19978;-74
2023/07/15 06:53:51;;;;;;;;;;;21.80;99.90;;;;;;20913316;28;20003;-75
2023/07/15 07:03:53;;;;;;;;;;;22.50;99.90;;;;;;20913385;28;19928;-75
2023/07/15 07:13:53;;;;;;;;;;;23.40;99.90;;;;;;20913391;28;19920;-75
2023/07/15 07:23:55;;;;;;;;;;;24.40;99.90;;;;;;20912243;28;19917;-74
2023/07/15 07:33:56;;;;;;;;;;;24.80;99.90;;;;;;20977192;22;19925;-80
2023/07/15 07:43:56;;;;;;;;;;;25.10;99.90;;;;;;20983545;28;19920;-78
2023/07/15 07:53:57;;;;;;;;;;;25.40;99.90;;;;;;21001126;28;19912;-77
2023/07/15 08:03:58;;;;;;;;;;;26.20;99.90;;;;;;20994595;28;19913;-77
2023/07/15 08:13:58;;;;;;;;;;;26.30;99.90;;;;;;20997008;28;20007;-77
2023/07/15 08:23:59;;;;;;;;;;;26.20;99.90;;;;;;20993113;28;20373;-77
2023/07/15 08:34:00;;;;;;;;;;;26.90;99.90;;;;;;20957771;28;19927;-78
2023/07/15 08:44:01;;;;;;;;;;;27.60;99.90;;;;;;20911112;28;19966;-77
2023/07/15 08:54:03;;;;;;;;;;;28.90;99.90;;;;;;20910714;28;19962;-76
2023/07/15 09:04:04;;;;;;;;;;;29.40;99.90;;;;;;20907020;28;19917;-76
2023/07/15 09:14:14;;;;;;;;;;;29.50;99.90;;;;;;20883380;28;20278;-76
2023/07/15 09:24:15;;;;;;;;;;;29.80;99.90;;;;;;20906570;28;20416;-77
2023/07/15 09:34:17;;;;;;;;;;;28.00;99.90;;;;;;20921240;28;19948;-76
2023/07/15 09:44:31;;;;;;;;;;;28.70;99.90;;;;;;20920862;28;19912;-76
2023/07/15 09:54:33;;;;;;;;;;;29.10;99.90;;;;;;20919806;28;19940;-77
2023/07/15 10:04:35;;;;;;;;;;;29.90;99.90;;;;;;20969037;28;19912;-76
2023/07/15 10:14:36;;;;;;;;;;;29.40;99.90;;;;;;20972849;28;19924;-77
2023/07/15 10:24:41;;;;;;;;;;;30.00;99.90;;;;;;20945746;28;19912;-78
2023/07/15 10:34:47;;;;;;;;;;;31.60;99.90;;;;;;20943578;28;19916;-78
2023/07/15 10:44:52;;;;;;;;;;;32.70;99.90;;;;;;20991506;28;19920;-77
2023/07/15 10:54:54;;;;;;;;;;;33.60;96.30;;;;;;20999576;28;19924;-78
2023/07/15 11:04:55;;;;;;;;;;;33.00;95.50;;;;;;20926031;28;19916;-77
2023/07/15 11:14:55;;;;;;;;;;;33.20;97.20;;;;;;20926070;28;19992;-78
2023/07/15 11:24:56;;;;;;;;;;;32.20;99.50;;;;;;20928028;28;20341;-78
2023/07/15 11:34:56;;;;;;;;;;;32.50;99.30;;;;;;20924763;28;19963;-77
2023/07/15 11:44:57;;;;;;;;;;;32.10;99.00;;;;;;20924939;28;20315;-76
2023/07/15 11:55:00;;;;;;;;;;;32.20;97.70;;;;;;20903784;28;19917;-78
2023/07/15 12:05:01;;;;;;;;;;;32.10;98.20;;;;;;20903160;28;19959;-78
2023/07/15 12:15:01;;;;;;;;;;;32.70;96.70;;;;;;20935610;28;19923;-78
2023/07/15 12:25:02;;;;;;;;;;;33.60;95.50;;;;;;20947718;28;20394;-77
2023/07/15 12:35:03;;;;;;;;;;;33.30;95.90;;;;;;21003554;28;20293;-77
2023/07/15 12:45:04;;;;;;;;;;;34.00;93.40;;;;;;20977610;28;19918;-77
2023/07/15 12:55:05;;;;;;;;;;;34.10;94.30;;;;;;20994817;28;19923;-77
2023/07/15 13:05:06;;;;;;;;;;;32.60;94.60;;;;;;20973131;28;20359;-76
2023/07/15 13:15:07;;;;;;;;;;;32.30;97.00;;;;;;20926580;28;20389;-79
2023/07/15 13:25:08;;;;;;;;;;;31.80;97.20;;;;;;20965821;28;19913;-76
2023/07/15 13:35:08;;;;;;;;;;;32.20;97.70;;;;;;20998453;22;19924;-77
2023/07/15 13:45:09;;;;;;;;;;;31.50;98.70;;;;;;20977552;28;20265;-78
2023/07/15 13:55:10;;;;;;;;;;;31.20;99.90;;;;;;21002808;28;19928;-76
2023/07/15 14:05:10;;;;;;;;;;;30.70;99.90;;;;;;21002935;28;19916;-76
2023/07/15 14:15:11;;;;;;;;;;;31.10;99.90;;;;;;21001417;28;19920;-77
2023/07/15 14:25:12;;;;;;;;;;;32.00;99.90;;;;;;21009674;28;19912;-78
2023/07/15 14:35:12;;;;;;;;;;;33.10;98.70;;;;;;21020005;28;20443;-80
2023/07/15 14:45:13;;;;;;;;;;;33.20;97.60;;;;;;20986694;28;19919;-77
2023/07/15 14:55:14;;;;;;;;;;;33.70;94.90;;;;;;21004121;28;20286;-77
2023/07/15 15:05:14;;;;;;;;;;;33.50;93.80;;;;;;20998139;28;20440;-76
2023/07/15 15:15:15;;;;;;;;;;;33.80;92.90;;;;;;20978515;28;19962;-77
2023/07/15 15:25:16;;;;;;;;;;;33.60;91.90;;;;;;20978055;28;19912;-77
2023/07/15 15:35:16;;;;;;;;;;;33.20;91.80;;;;;;20987667;28;20336;-79
2023/07/15 15:45:17;;;;;;;;;;;33.60;91.70;;;;;;21000973;28;19952;-77
2023/07/15 15:55:17;;;;;;;;;;;32.90;92.50;;;;;;21022831;28;19948;-77
2023/07/15 16:05:18;;;;;;;;;;;33.10;93.50;;;;;;21019301;28;20439;-77
2023/07/15 16:15:19;;;;;;;;;;;32.60;95.90;;;;;;20995365;28;19980;-79
2023/07/15 16:25:20;;;;;;;;;;;32.90;94.80;;;;;;21011607;28;19920;-79
2023/07/15 16:35:20;;;;;;;;;;;32.20;94.60;;;;;;20956907;28;20008;-76
2023/07/15 16:45:21;;;;;;;;;;;32.00;96.30;;;;;;20887441;28;20358;-77
2023/07/15 16:55:22;;;;;;;;;;;31.70;96.90;;;;;;20872854;28;19928;-76
2023/07/15 17:05:22;;;;;;;;;;;31.30;97.60;;;;;;20846048;28;19913;-76
2023/07/15 17:15:23;;;;;;;;;;;30.80;98.30;;;;;;20885167;28;20294;-76
2023/07/15 17:25:23;;;;;;;;;;;30.30;99.90;;;;;;20846402;28;20414;-76
2023/07/15 17:35:24;;;;;;;;;;;29.70;99.90;;;;;;20908572;28;20004;-75
2023/07/15 17:45:25;;;;;;;;;;;29.30;99.90;;;;;;21003611;28;19966;-77
2023/07/15 17:55:25;;;;;;;;;;;29.20;99.90;;;;;;20984997;28;19999;-77
2023/07/15 18:05:27;;;;;;;;;;;28.60;99.90;;;;;;21015072;28;19912;-78
2023/07/15 18:15:28;;;;;;;;;;;28.60;99.90;;;;;;21034655;28;19917;-77
2023/07/15 18:25:28;;;;;;;;;;;28.50;99.90;;;;;;21000567;28;19912;-77
2023/07/15 18:35:29;;;;;;;;;;;28.20;99.90;;;;;;20971275;28;20279;-77
2023/07/15 18:45:30;;;;;;;;;;;27.10;99.90;;;;;;20918227;28;19919;-76
2023/07/15 18:55:30;;;;;;;;;;;27.00;99.90;;;;;;20915860;28;20319;-75
2023/07/15 19:05:31;;;;;;;;;;;26.40;99.90;;;;;;20910960;28;20102;-75
2023/07/15 19:15:32;;;;;;;;;;;25.50;99.90;;;;;;20914228;28;19921;-75
2023/07/15 19:25:32;;;;;;;;;;;24.70;99.90;;;;;;20914462;28;19913;-76
2023/07/15 19:35:33;;;;;;;;;;;24.70;99.90;;;;;;20963212;28;19916;-76
2023/07/15 19:45:34;;;;;;;;;;;24.10;99.90;;;;;;20994260;28;19959;-76
2023/07/15 19:55:34;;;;;;;;;;;23.80;99.90;;;;;;20992345;28;19916;-76
2023/07/15 20:05:35;;;;;;;;;;;23.70;99.90;;;;;;20993638;28;19912;-74
2023/07/15 20:15:35;;;;;;;;;;;22.80;99.90;;;;;;20974573;28;20421;-74
2023/07/15 20:25:36;;;;;;;;;;;22.00;99.90;;;;;;20997015;28;19913;-75
2023/07/15 20:35:37;;;;;;;;;;;21.10;99.90;;;;;;20991272;28;20379;-76
2023/07/15 20:45:38;;;;;;;;;;;20.90;99.90;;;;;;20991164;28;19912;-76
2023/07/15 20:55:39;;;;;;;;;;;21.10;99.90;;;;;;20972400;28;19923;-76
2023/07/15 21:05:39;;;;;;;;;;;20.80;99.90;;;;;;20975492;28;20065;-75
2023/07/15 21:15:40;;;;;;;;;;;20.60;99.90;;;;;;21006438;28;19955;-76
2023/07/15 21:25:41;;;;;;;;;;;20.30;99.90;;;;;;21005832;28;20337;-76
2023/07/15 21:35:42;;;;;;;;;;;20.30;99.90;;;;;;21005416;28;19920;-78
2023/07/15 21:45:43;;;;;;;;;;;20.20;99.90;;;;;;21012630;28;19935;-77
2023/07/15 21:55:43;;;;;;;;;;;20.10;99.90;;;;;;21004644;28;20370;-77
2023/07/15 22:05:44;;;;;;;;;;;20.20;99.90;;;;;;21056246;28;19913;-77
2023/07/15 22:15:45;;;;;;;;;;;20.10;99.90;;;;;;21026672;28;19923;-76
2023/07/15 22:25:46;;;;;;;;;;;20.10;99.90;;;;;;21041204;28;19952;-76
2023/07/15 22:35:47;;;;;;;;;;;20.10;99.90;;;;;;21020118;28;19924;-76
2023/07/15 22:45:47;;;;;;;;;;;20.00;99.90;;;;;;21023471;28;19912;-77
2023/07/15 22:55:48;;;;;;;;;;;19.80;99.90;;;;;;21023878;28;19916;-76
2023/07/15 23:05:49;;;;;;;;;;;19.20;99.90;;;;;;21050087;28;19916;-75
2023/07/15 23:15:50;;;;;;;;;;;18.60;99.90;;;;;;21026322;28;20428;-76
2023/07/15 23:25:51;;;;;;;;;;;18.20;99.90;;;;;;21036817;28;19955;-76
2023/07/15 23:35:51;;;;;;;;;;;17.90;99.90;;;;;;21033122;28;20361;-76
2023/07/15 23:45:52;;;;;;;;;;;17.60;99.90;;;;;;21021002;28;19916;-75
2023/07/15 23:55:53;;;;;;;;;;;17.30;99.90;;;;;;21051046;28;20332;-73
